Time;durP1;ratioP1;P1;durP2;ratioP2;P2;SDS_P1;SDS_P2;PMS_P1;PMS_P2;Temp;Humidity;BMP_temperature;BMP_pressure;BME280_temperature;BME280_humidity;BME280_pressure;Samples;Min_cycle;Max_cycle;Signal;HPM_P1;HPM_P2
2022/06/25 00:01:48;;;;;;;1.10;0.60;;;16.20;99.90;;;;;;5070666;28;20576;-50
2022/06/25 00:07:00;;;;;;;1.60;0.80;;;16.40;99.90;;;;;;5071232;28;20427;-49
2022/06/25 00:09:27;;;;;;;1.50;0.60;;;16.40;99.90;;;;;;5071003;28;20531;-47
2022/06/25 00:14:39;;;;;;;1.30;0.63;;;16.10;99.90;;;;;;5071298;28;20494;-47
2022/06/25 00:17:06;;;;;;;1.07;0.63;;;16.30;99.90;;;;;;5071067;28;20482;-46
2022/06/25 00:19:35;;;;;;;1.87;0.70;;;16.40;99.90;;;;;;5070350;28;20451;-47
2022/06/25 00:22:02;;;;;;;1.40;0.80;;;16.60;99.90;;;;;;5071018;28;20566;-46
2022/06/25 00:24:29;;;;;;;1.33;0.60;;;16.70;99.90;;;;;;5070991;28;20483;-46
2022/06/25 00:26:56;;;;;;;1.83;0.60;;;16.90;99.90;;;;;;5070767;28;20448;-47
2022/06/25 00:29:23;;;;;;;1.33;0.70;;;17.00;99.90;;;;;;5070587;28;20483;-46
2022/06/25 00:31:50;;;;;;;2.07;0.70;;;17.10;99.90;;;;;;5070600;28;20500;-49
2022/06/25 00:34:17;;;;;;;1.40;0.67;;;17.20;99.90;;;;;;5070607;28;20527;-47
2022/06/25 00:36:45;;;;;;;2.50;0.70;;;17.20;99.90;;;;;;5071088;28;20494;-47
2022/06/25 00:39:12;;;;;;;1.40;0.77;;;17.30;99.90;;;;;;5070636;28;20529;-47
2022/06/25 00:41:39;;;;;;;1.73;0.90;;;17.40;99.90;;;;;;5070551;28;20480;-47
2022/06/25 00:44:09;;;;;;;1.10;0.70;;;17.50;99.90;;;;;;5070859;28;20437;-46
2022/06/25 00:46:36;;;;;;;1.40;1.23;;;17.50;99.90;;;;;;5070669;28;20515;-46
2022/06/25 00:49:04;;;;;;;1.50;0.93;;;17.20;99.90;;;;;;5070810;28;20495;-47
2022/06/25 00:51:33;;;;;;;2.23;1.20;;;17.20;99.90;;;;;;5070495;28;20456;-47
2022/06/25 00:54:05;;;;;;;1.20;0.90;;;17.20;99.90;;;;;;5070474;28;20432;-47
2022/06/25 00:56:36;;;;;;;1.50;1.00;;;17.30;99.90;;;;;;5070704;28;20849;-46
2022/06/25 00:59:05;;;;;;;1.17;0.70;;;17.30;99.90;;;;;;5070486;28;20440;-50
2022/06/25 01:01:34;;;;;;;2.63;0.60;;;17.40;99.90;;;;;;5070461;28;20491;-48
2022/06/25 01:04:01;;;;;;;1.80;0.80;;;17.40;99.90;;;;;;5070728;28;20464;-46
2022/06/25 01:06:29;;;;;;;2.47;0.93;;;17.50;99.90;;;;;;5070475;28;20476;-47
2022/06/25 01:08:56;;;;;;;1.67;0.90;;;17.50;99.90;;;;;;5070559;28;20448;-48
2022/06/25 01:11:25;;;;;;;3.20;0.90;;;17.50;99.90;;;;;;5070168;28;20822;-48
2022/06/25 01:13:52;;;;;;;2.00;1.17;;;17.50;99.90;;;;;;5071237;28;20493;-47
2022/06/25 01:16:19;;;;;;;1.10;0.70;;;17.30;99.90;;;;;;5074324;28;20824;-46
2022/06/25 01:18:48;;;;;;;1.50;0.90;;;17.20;99.90;;;;;;5073561;28;20472;-45
2022/06/25 01:21:15;;;;;;;1.30;1.00;;;17.30;99.90;;;;;;5073774;28;20999;-46
2022/06/25 01:23:44;;;;;;;3.73;1.40;;;17.40;99.90;;;;;;5073689;28;20480;-46
2022/06/25 01:26:11;;;;;;;2.37;1.10;;;17.40;99.90;;;;;;5073964;28;20530;-46
2022/06/25 01:28:38;;;;;;;1.37;1.10;;;17.30;99.90;;;;;;5073870;28;20440;-49
2022/06/25 01:31:04;;;;;;;1.70;1.00;;;17.30;99.90;;;;;;5073850;28;20788;-46
2022/06/25 01:33:31;;;;;;;1.57;1.10;;;17.30;99.90;;;;;;5073911;28;20464;-50
2022/06/25 01:35:58;;;;;;;3.50;1.27;;;17.20;99.90;;;;;;5073501;28;20491;-48
2022/06/25 01:38:25;;;;;;;2.93;1.30;;;17.20;99.90;;;;;;5073679;28;20845;-47
2022/06/25 01:40:54;;;;;;;1.30;1.20;;;17.10;99.90;;;;;;5073534;28;20483;-48
2022/06/25 01:43:21;;;;;;;1.47;0.90;;;17.10;99.90;;;;;;5073863;28;20443;-47
2022/06/25 01:45:48;;;;;;;1.87;1.17;;;17.10;99.90;;;;;;5073341;28;20531;-46
2022/06/25 01:48:15;;;;;;;1.70;1.27;;;17.30;99.90;;;;;;5073292;28;20801;-47
2022/06/25 01:50:42;;;;;;;1.50;0.80;;;17.30;99.90;;;;;;5073234;28;20476;-47
2022/06/25 01:53:09;;;;;;;1.80;0.90;;;17.30;99.90;;;;;;5073719;28;20871;-47
2022/06/25 01:55:37;;;;;;;1.50;0.93;;;17.40;99.90;;;;;;5073370;28;20444;-47
2022/06/25 01:58:05;;;;;;;2.23;1.00;;;17.40;99.90;;;;;;5073143;28;20977;-47
2022/06/25 02:00:33;;;;;;;1.43;1.17;;;17.50;99.90;;;;;;5072848;28;20472;-46
2022/06/25 02:03:01;;;;;;;1.70;1.20;;;17.40;99.90;;;;;;5073338;28;20511;-47
2022/06/25 02:08:17;;;;;;;1.77;1.50;;;17.40;99.90;;;;;;5073282;28;20423;-48
2022/06/25 02:10:44;;;;;;;2.63;1.10;;;17.50;99.90;;;;;;5072141;28;20930;-48
2022/06/25 02:13:13;;;;;;;1.80;1.20;;;17.50;99.90;;;;;;5072726;28;20890;-47
2022/06/25 02:15:40;;;;;;;1.60;1.00;;;17.50;99.90;;;;;;5073106;28;20484;-48
2022/06/25 02:18:08;;;;;;;1.73;1.17;;;17.50;99.90;;;;;;5072766;28;20444;-47
2022/06/25 02:20:35;;;;;;;1.40;0.97;;;17.50;99.90;;;;;;5072574;28;20527;-46
2022/06/25 02:23:02;;;;;;;1.80;1.20;;;17.40;99.90;;;;;;5072375;28;20575;-47
2022/06/25 02:25:29;;;;;;;1.93;1.10;;;17.20;99.90;;;;;;5071414;28;20963;-48
2022/06/25 02:27:56;;;;;;;1.33;1.20;;;17.10;99.90;;;;;;5072699;28;20479;-47
2022/06/25 02:30:24;;;;;;;1.50;1.03;;;17.10;99.90;;;;;;5072320;28;20468;-48
2022/06/25 02:32:52;;;;;;;2.63;1.13;;;17.10;99.90;;;;;;5072263;28;20556;-48
2022/06/25 02:35:19;;;;;;;1.30;1.20;;;17.00;99.90;;;;;;5072306;28;20483;-47
2022/06/25 02:37:46;;;;;;;1.53;1.23;;;17.00;99.90;;;;;;5072492;28;20466;-47
2022/06/25 02:40:13;;;;;;;3.33;1.70;;;16.90;99.90;;;;;;5072190;28;20479;-47
2022/06/25 02:42:41;;;;;;;3.20;2.80;;;16.90;99.90;;;;;;5072554;28;20512;-47
2022/06/25 02:45:10;;;;;;;1.87;1.10;;;17.00;99.90;;;;;;5072536;28;20453;-47
2022/06/25 02:47:39;;;;;;;1.47;1.27;;;17.00;99.90;;;;;;5071980;28;20472;-47
2022/06/25 02:50:08;;;;;;;2.20;1.40;;;17.00;99.90;;;;;;5071766;28;20521;-48
2022/06/25 02:52:35;;;;;;;3.07;1.50;;;16.90;99.90;;;;;;5072196;28;20801;-47
2022/06/25 02:55:02;;;;;;;1.60;1.13;;;16.80;99.90;;;;;;5072334;28;20475;-47
2022/06/25 03:00:14;;;;;;;1.30;1.10;;;16.70;99.90;;;;;;5071731;28;20511;-46
2022/06/25 03:02:42;;;;;;;1.80;1.23;;;16.70;99.90;;;;;;5071774;28;20487;-49
2022/06/25 03:05:10;;;;;;;3.43;0.93;;;16.70;99.90;;;;;;5072087;28;20527;-47
2022/06/25 03:07:37;;;;;;;1.70;1.10;;;16.70;99.90;;;;;;5072156;28;20524;-47
2022/06/25 03:10:04;;;;;;;1.50;1.17;;;16.60;99.90;;;;;;5071994;28;20436;-46
2022/06/25 03:12:31;;;;;;;1.40;1.20;;;16.50;99.90;;;;;;5071637;28;20543;-47
2022/06/25 03:14:58;;;;;;;3.43;1.30;;;16.40;99.90;;;;;;5071758;28;20520;-48
2022/06/25 03:17:25;;;;;;;1.20;0.83;;;16.40;99.90;;;;;;5071593;28;20449;-48
2022/06/25 03:19:53;;;;;;;2.53;1.07;;;16.50;99.90;;;;;;5071137;28;20872;-48
2022/06/25 03:22:21;;;;;;;2.27;1.30;;;16.60;99.90;;;;;;5071791;28;20533;-47
2022/06/25 03:24:48;;;;;;;2.17;1.00;;;16.70;99.90;;;;;;5071388;28;20456;-46
2022/06/25 03:27:15;;;;;;;3.97;1.00;;;16.80;99.90;;;;;;5071671;28;20479;-46
2022/06/25 03:29:42;;;;;;;1.30;0.90;;;16.90;99.90;;;;;;5071064;28;20532;-48
2022/06/25 03:32:09;;;;;;;2.90;2.10;;;16.90;99.90;;;;;;5072454;28;20499;-47
2022/06/25 03:34:36;;;;;;;4.87;2.10;;;16.80;99.90;;;;;;5071477;28;20475;-46
2022/06/25 03:37:05;;;;;;;2.53;1.90;;;16.70;99.90;;;;;;5071108;28;20441;-50
2022/06/25 03:39:32;;;;;;;3.57;2.00;;;16.60;99.90;;;;;;5070996;28;20445;-46
2022/06/25 03:41:59;;;;;;;3.00;2.20;;;16.50;99.90;;;;;;5070824;28;20480;-48
2022/06/25 03:44:26;;;;;;;2.83;2.53;;;16.50;99.90;;;;;;5071454;28;20502;-48
2022/06/25 03:46:53;;;;;;;3.47;2.83;;;16.50;99.90;;;;;;5071514;28;20476;-47
2022/06/25 03:49:19;;;;;;;2.47;2.27;;;16.50;99.90;;;;;;5071152;28;20446;-46
2022/06/25 03:51:47;;;;;;;2.17;1.63;;;16.60;99.90;;;;;;5071098;28;20877;-48
2022/06/25 03:54:15;;;;;;;2.00;1.37;;;16.60;99.90;;;;;;5071243;28;20497;-46
2022/06/25 03:56:42;;;;;;;4.43;2.03;;;16.60;99.90;;;;;;5071058;28;20487;-47
2022/06/25 03:59:09;;;;;;;2.77;1.50;;;16.40;99.90;;;;;;5070757;28;20448;-48
2022/06/25 04:01:36;;;;;;;1.63;1.50;;;16.30;99.90;;;;;;5070856;28;20499;-48
2022/06/25 04:04:03;;;;;;;2.60;1.87;;;16.30;99.90;;;;;;5071018;28;20518;-46
2022/06/25 04:06:29;;;;;;;2.47;2.27;;;16.40;99.90;;;;;;5071015;28;20475;-46
2022/06/25 04:08:56;;;;;;;2.37;1.90;;;16.50;99.90;;;;;;5070542;28;20897;-46
2022/06/25 04:11:25;;;;;;;2.97;1.93;;;16.60;99.90;;;;;;5070804;28;20495;-49
2022/06/25 04:13:52;;;;;;;3.73;2.23;;;16.60;99.90;;;;;;5071157;28;21002;-47
2022/06/25 04:16:19;;;;;;;3.60;2.77;;;16.70;99.90;;;;;;5070900;28;20444;-48
2022/06/25 04:18:45;;;;;;;3.73;2.80;;;16.70;99.90;;;;;;5070554;28;20476;-48
2022/06/25 04:21:13;;;;;;;4.20;3.50;;;16.60;99.90;;;;;;5070355;28;20440;-47
2022/06/25 04:23:39;;;;;;;3.93;3.47;;;16.40;99.90;;;;;;5070842;28;20612;-46
2022/06/25 04:26:06;;;;;;;4.70;2.67;;;16.40;99.90;;;;;;5071114;28;20440;-47
2022/06/25 04:31:19;;;;;;;3.83;2.60;;;16.50;99.90;;;;;;5070681;28;20439;-49
2022/06/25 04:33:46;;;;;;;3.37;2.23;;;16.60;99.90;;;;;;5070734;28;20996;-46
2022/06/25 04:36:13;;;;;;;5.50;3.30;;;16.70;99.90;;;;;;5070700;28;20949;-50
2022/06/25 04:38:40;;;;;;;3.50;2.60;;;16.70;99.90;;;;;;5070816;28;20444;-46
2022/06/25 04:41:06;;;;;;;3.47;2.60;;;16.70;99.90;;;;;;5070710;28;20476;-46
2022/06/25 04:43:35;;;;;;;6.40;2.27;;;16.70;99.90;;;;;;5070685;28;20568;-49
2022/06/25 04:46:02;;;;;;;2.90;2.50;;;16.80;99.90;;;;;;5070844;28;20444;-49
2022/06/25 04:48:29;;;;;;;4.27;2.20;;;16.80;99.90;;;;;;5070617;28;20498;-47
2022/06/25 04:50:56;;;;;;;2.40;2.07;;;16.80;99.90;;;;;;5074806;28;20476;-49
2022/06/25 04:53:23;;;;;;;3.03;2.73;;;16.90;99.90;;;;;;5074484;28;20853;-47
2022/06/25 04:55:50;;;;;;;2.80;2.27;;;17.00;99.90;;;;;;5074360;28;20530;-46
2022/06/25 04:58:17;;;;;;;2.67;2.47;;;17.00;99.90;;;;;;5074464;28;20497;-47
2022/06/25 05:00:45;;;;;;;4.37;2.90;;;17.00;99.90;;;;;;5074060;28;20497;-46
2022/06/25 05:03:12;;;;;;;3.40;3.00;;;16.90;99.90;;;;;;5074214;28;20476;-49
2022/06/25 05:05:39;;;;;;;4.00;3.60;;;16.90;99.90;;;;;;5074419;28;20486;-47
2022/06/25 05:08:06;;;;;;;3.50;3.20;;;16.90;99.90;;;;;;5074354;28;20959;-46
2022/06/25 05:10:33;;;;;;;4.50;3.83;;;16.90;99.90;;;;;;5073174;28;20950;-46
2022/06/25 05:13:12;;;;;;;4.23;3.83;;;17.00;99.90;;;;;;5073836;28;20484;-47
2022/06/25 05:15:40;;;;;;;4.40;3.90;;;17.00;99.90;;;;;;5074087;28;20456;-48
2022/06/25 05:18:09;;;;;;;4.50;3.30;;;16.80;99.90;;;;;;5073918;28;20451;-47
2022/06/25 05:20:38;;;;;;;3.63;2.80;;;16.70;99.90;;;;;;5073204;28;20479;-48
2022/06/25 05:23:05;;;;;;;4.63;3.20;;;16.70;99.90;;;;;;5073895;28;20483;-46
2022/06/25 05:25:32;;;;;;;2.93;2.50;;;16.70;99.90;;;;;;5073580;28;20532;-47
2022/06/25 05:27:59;;;;;;;2.50;2.30;;;16.70;99.90;;;;;;5073650;28;20436;-46
2022/06/25 05:30:26;;;;;;;4.27;3.30;;;16.70;99.90;;;;;;5073589;28;20436;-50
2022/06/25 05:32:53;;;;;;;3.07;2.37;;;16.70;99.90;;;;;;5073927;28;20507;-46
2022/06/25 05:35:22;;;;;;;2.90;2.60;;;16.80;99.90;;;;;;5073725;28;20486;-49
2022/06/25 05:37:48;;;;;;;3.53;2.50;;;16.80;99.90;;;;;;5073653;28;20489;-50
2022/06/25 05:40:16;;;;;;;3.90;2.70;;;16.90;99.90;;;;;;5073174;28;20473;-46
2022/06/25 05:42:42;;;;;;;3.50;2.47;;;16.90;99.90;;;;;;5073403;28;20480;-47
2022/06/25 05:45:10;;;;;;;2.40;2.20;;;16.70;99.90;;;;;;5073539;28;20474;-46
2022/06/25 05:47:37;;;;;;;3.67;2.70;;;16.60;99.90;;;;;;5073589;28;20468;-46
2022/06/25 05:50:06;;;;;;;2.47;2.17;;;16.40;99.90;;;;;;5073233;28;20478;-46
2022/06/25 05:52:34;;;;;;;3.90;2.47;;;16.50;99.90;;;;;;5073463;28;20518;-46
2022/06/25 05:55:01;;;;;;;5.40;2.70;;;16.50;99.90;;;;;;5073210;28;20444;-47
2022/06/25 05:57:28;;;;;;;3.83;2.53;;;16.60;99.90;;;;;;5073256;28;20533;-47
2022/06/25 05:59:55;;;;;;;3.33;3.03;;;16.60;99.90;;;;;;5072767;28;20467;-47
2022/06/25 06:02:22;;;;;;;4.33;3.20;;;16.70;99.90;;;;;;5072942;28;20507;-49
2022/06/25 06:04:49;;;;;;;3.17;2.87;;;16.70;99.90;;;;;;5073185;28;20441;-47
2022/06/25 06:07:16;;;;;;;3.43;3.13;;;16.70;99.90;;;;;;5073612;28;20505;-48
2022/06/25 06:09:44;;;;;;;3.20;2.90;;;16.60;99.90;;;;;;5072568;28;20808;-46
2022/06/25 06:12:11;;;;;;;2.80;2.60;;;16.60;99.90;;;;;;5072370;28;20502;-47
2022/06/25 06:14:38;;;;;;;6.77;3.20;;;16.50;99.90;;;;;;5072791;28;20505;-46
2022/06/25 06:17:05;;;;;;;3.37;3.07;;;16.60;99.90;;;;;;5073043;28;20432;-50
2022/06/25 06:19:32;;;;;;;3.03;2.60;;;16.70;99.90;;;;;;5072464;28;20785;-46
2022/06/25 06:21:59;;;;;;;4.80;2.57;;;16.70;99.90;;;;;;5072952;28;20840;-46
2022/06/25 06:24:26;;;;;;;7.90;5.40;;;16.80;99.90;;;;;;5072643;28;20512;-47
2022/06/25 06:26:54;;;;;;;4.13;2.93;;;16.90;99.90;;;;;;5072621;28;20776;-46
2022/06/25 06:29:21;;;;;;;2.33;2.10;;;16.90;99.90;;;;;;5072565;28;20476;-47
2022/06/25 06:31:48;;;;;;;5.53;2.43;;;17.00;99.90;;;;;;5072590;28;20925;-48
2022/06/25 06:34:15;;;;;;;3.27;1.90;;;17.10;99.90;;;;;;5072285;28;20480;-47
2022/06/25 06:36:42;;;;;;;3.23;1.73;;;17.10;99.90;;;;;;5072469;28;20476;-46
2022/06/25 06:39:10;;;;;;;2.03;1.83;;;17.00;99.90;;;;;;5071899;28;20437;-48
2022/06/25 06:41:37;;;;;;;3.00;2.07;;;17.00;99.90;;;;;;5072772;28;21042;-47
2022/06/25 06:44:05;;;;;;;2.93;2.33;;;17.00;99.90;;;;;;5072298;28;20472;-47
2022/06/25 06:46:32;;;;;;;3.50;2.20;;;17.00;99.90;;;;;;5072368;28;20529;-48
2022/06/25 06:48:59;;;;;;;2.50;2.27;;;17.00;99.90;;;;;;5071963;28;20860;-47
2022/06/25 06:51:26;;;;;;;2.57;2.37;;;17.10;99.90;;;;;;5072300;28;20496;-46
2022/06/25 06:53:53;;;;;;;3.10;2.23;;;17.00;99.90;;;;;;5072505;28;20520;-47
2022/06/25 06:56:20;;;;;;;2.63;2.43;;;17.00;99.90;;;;;;5072285;28;20444;-46
2022/06/25 06:58:48;;;;;;;3.50;2.30;;;17.00;99.90;;;;;;5072101;28;20455;-45
2022/06/25 07:01:16;;;;;;;2.60;2.10;;;17.20;99.90;;;;;;5072375;28;20464;-47
2022/06/25 07:03:43;;;;;;;2.03;1.80;;;17.40;99.90;;;;;;5071813;28;20888;-46
2022/06/25 07:06:10;;;;;;;2.17;1.37;;;17.50;99.90;;;;;;5071937;28;20504;-47
2022/06/25 07:08:37;;;;;;;1.47;1.10;;;17.60;99.90;;;;;;5071888;28;20523;-47
2022/06/25 07:11:28;;;;;;;1.50;1.20;;;17.60;99.90;;;;;;5071320;28;20865;-48
2022/06/25 07:13:53;;;;;;;1.83;1.30;;;17.80;99.90;;;;;;5071651;28;20437;-47
2022/06/25 07:16:22;;;;;;;2.13;1.60;;;18.10;99.90;;;;;;5071566;28;20472;-47
2022/06/25 07:18:50;;;;;;;1.60;1.30;;;18.40;99.90;;;;;;5071265;28;20520;-50
2022/06/25 07:21:17;;;;;;;3.17;1.93;;;18.70;99.90;;;;;;5071399;28;20475;-47
2022/06/25 07:23:44;;;;;;;1.73;1.10;;;18.80;99.90;;;;;;5071471;28;20508;-47
2022/06/25 07:26:11;;;;;;;1.77;1.30;;;19.20;99.90;;;;;;5071672;28;20489;-50
2022/06/25 07:28:38;;;;;;;1.60;1.20;;;19.50;99.90;;;;;;5071631;28;20497;-47
2022/06/25 07:31:05;;;;;;;2.83;1.60;;;19.60;99.90;;;;;;5071533;28;20521;-47
2022/06/25 07:33:34;;;;;;;2.80;1.40;;;19.90;99.90;;;;;;5071176;28;20963;-47
2022/06/25 07:36:01;;;;;;;1.90;1.03;;;20.20;99.90;;;;;;5071490;28;20523;-48
2022/06/25 07:38:28;;;;;;;2.97;1.20;;;20.30;99.90;;;;;;5071467;28;20479;-51
2022/06/25 07:40:55;;;;;;;1.30;0.83;;;20.50;99.90;;;;;;5071023;28;20477;-49
2022/06/25 07:43:22;;;;;;;1.30;0.80;;;20.50;99.90;;;;;;5071392;28;21056;-47
2022/06/25 07:45:50;;;;;;;1.10;0.73;;;20.80;99.90;;;;;;5071346;28;20929;-49
2022/06/25 07:48:17;;;;;;;1.20;0.90;;;20.90;99.90;;;;;;5071075;28;20487;-49
2022/06/25 07:53:30;;;;;;;2.90;0.80;;;21.30;99.90;;;;;;5071285;28;20428;-47
2022/06/25 07:55:57;;;;;;;1.30;0.93;;;21.10;99.90;;;;;;5070926;28;20444;-47
2022/06/25 07:58:24;;;;;;;3.70;1.67;;;21.10;99.90;;;;;;5070988;28;20440;-47
2022/06/25 08:00:51;;;;;;;1.63;1.13;;;20.80;99.90;;;;;;5071047;28;20528;-47
2022/06/25 08:03:18;;;;;;;1.30;0.80;;;21.10;99.90;;;;;;5071091;28;20487;-48
2022/06/25 08:05:47;;;;;;;1.10;0.60;;;21.30;99.90;;;;;;5071272;28;20556;-47
2022/06/25 08:08:14;;;;;;;1.40;0.70;;;21.40;99.90;;;;;;5071139;28;20480;-50
2022/06/25 08:10:41;;;;;;;1.20;0.83;;;21.40;99.90;;;;;;5070303;28;20444;-47
2022/06/25 08:13:08;;;;;;;1.00;0.50;;;21.40;99.90;;;;;;5071295;28;20908;-50
2022/06/25 08:15:35;;;;;;;1.47;0.80;;;21.50;99.90;;;;;;5071337;28;20519;-47
2022/06/25 08:18:02;;;;;;;1.10;0.60;;;21.50;99.90;;;;;;5070984;28;20452;-51
2022/06/25 08:20:29;;;;;;;1.10;0.60;;;21.50;99.90;;;;;;5070338;28;20482;-48
2022/06/25 08:22:58;;;;;;;2.27;0.57;;;21.70;99.90;;;;;;5070675;28;20503;-47
2022/06/25 08:25:24;;;;;;;1.00;0.60;;;21.70;99.90;;;;;;5074673;28;20471;-47
2022/06/25 08:27:53;;;;;;;1.10;0.60;;;21.60;99.90;;;;;;5074807;28;20444;-48
2022/06/25 08:30:20;;;;;;;1.00;0.50;;;21.60;99.90;;;;;;5074796;28;20472;-49
2022/06/25 08:32:48;;;;;;;1.60;0.60;;;21.70;99.90;;;;;;5074664;28;20500;-49
2022/06/25 08:35:15;;;;;;;1.97;0.87;;;21.70;99.90;;;;;;5074899;28;20925;-47
2022/06/25 08:37:45;;;;;;;1.20;0.67;;;21.60;99.90;;;;;;5074595;28;20956;-48
2022/06/25 08:40:14;;;;;;;1.47;0.70;;;21.90;99.90;;;;;;5074544;28;20548;-52
2022/06/25 08:42:41;;;;;;;1.40;0.70;;;21.90;99.90;;;;;;5074950;28;20466;-47
2022/06/25 08:45:09;;;;;;;1.10;0.60;;;22.10;99.90;;;;;;5074951;28;20476;-47
2022/06/25 08:47:41;;;;;;;1.57;0.80;;;22.00;99.90;;;;;;5074659;28;20444;-49
2022/06/25 08:50:11;;;;;;;5.07;0.80;;;22.00;99.90;;;;;;5074429;28;20475;-47
2022/06/25 08:52:39;;;;;;;1.20;0.80;;;21.80;99.90;;;;;;5074486;28;20467;-47
2022/06/25 08:55:07;;;;;;;1.27;0.63;;;21.90;99.90;;;;;;5074533;28;21087;-47
2022/06/25 08:57:35;;;;;;;1.20;0.70;;;21.70;99.90;;;;;;5074401;28;21154;-47
2022/06/25 09:00:03;;;;;;;1.00;0.50;;;21.70;99.90;;;;;;5074032;28;21004;-47
2022/06/25 09:02:31;;;;;;;1.10;0.57;;;21.80;99.90;;;;;;5074149;28;20461;-46
2022/06/25 09:04:57;;;;;;;1.10;0.47;;;22.00;99.90;;;;;;5074228;28;20570;-47
2022/06/25 09:07:24;;;;;;;1.30;0.50;;;22.00;99.90;;;;;;5074060;28;20472;-47
2022/06/25 09:09:51;;;;;;;1.20;0.40;;;22.10;99.90;;;;;;5074070;28;20527;-48
2022/06/25 09:12:19;;;;;;;4.10;0.70;;;21.80;99.90;;;;;;5073881;28;20494;-48
2022/06/25 09:14:48;;;;;;;1.00;0.60;;;21.60;99.90;;;;;;5074489;28;20523;-47
2022/06/25 09:17:16;;;;;;;1.30;0.80;;;21.60;99.90;;;;;;5073863;28;20445;-47
2022/06/25 09:19:44;;;;;;;1.30;0.83;;;21.90;99.90;;;;;;5073759;28;20468;-47
2022/06/25 09:22:13;;;;;;;1.97;0.90;;;22.10;99.90;;;;;;5074017;28;20835;-48
2022/06/25 09:24:45;;;;;;;1.47;0.60;;;22.20;99.90;;;;;;5073796;28;20873;-47
2022/06/25 09:27:12;;;;;;;1.10;0.60;;;22.40;99.90;;;;;;5073842;28;20452;-48
2022/06/25 09:29:40;;;;;;;1.30;0.70;;;22.40;99.90;;;;;;5073345;28;20437;-48
2022/06/25 09:32:10;;;;;;;1.30;0.60;;;22.60;99.90;;;;;;5137774;22;20529;-47
2022/06/25 09:34:38;;;;;;;1.30;0.60;;;22.40;99.90;;;;;;5092743;28;20861;-47
2022/06/25 09:37:25;;;;;;;1.93;0.70;;;22.20;99.90;;;;;;5093952;28;20443;-49
2022/06/25 09:39:54;;;;;;;1.20;0.50;;;22.30;99.90;;;;;;5093697;28;20940;-47
2022/06/25 09:42:23;;;;;;;1.50;0.50;;;22.60;99.90;;;;;;5093896;28;20502;-46
2022/06/25 09:44:59;;;;;;;1.00;0.60;;;22.80;99.90;;;;;;5093627;28;20570;-47
2022/06/25 09:47:28;;;;;;;1.50;0.67;;;22.80;99.90;;;;;;5093636;28;20507;-48
2022/06/25 09:50:07;;;;;;;1.10;0.60;;;22.90;99.90;;;;;;5093489;28;20479;-47
2022/06/25 09:52:34;;;;;;;0.90;0.40;;;23.00;99.90;;;;;;5093739;28;20521;-47
2022/06/25 09:55:02;;;;;;;2.40;0.60;;;23.00;99.90;;;;;;5093788;28;20496;-46
2022/06/25 09:57:30;;;;;;;1.00;0.40;;;23.00;99.90;;;;;;5093988;28;20471;-48
2022/06/25 10:00:00;;;;;;;1.00;0.47;;;23.10;99.90;;;;;;5093405;28;20471;-47
2022/06/25 10:02:29;;;;;;;1.40;0.40;;;23.10;99.90;;;;;;5093119;28;20491;-49
2022/06/25 10:05:01;;;;;;;1.10;0.40;;;23.10;99.90;;;;;;5093226;28;20498;-46
2022/06/25 10:10:18;;;;;;;1.47;0.67;;;23.20;99.90;;;;;;5093150;28;20443;-47
2022/06/25 10:12:46;;;;;;;0.93;0.40;;;23.20;99.90;;;;;;5093200;28;20558;-46
2022/06/25 10:15:16;;;;;;;1.00;0.40;;;23.20;99.90;;;;;;5093394;28;20468;-46
2022/06/25 10:17:46;;;;;;;1.00;0.30;;;23.30;99.90;;;;;;5093002;28;20439;-49
2022/06/25 10:20:13;;;;;;;4.63;1.20;;;23.40;99.90;;;;;;5092934;28;20471;-47
2022/06/25 10:22:41;;;;;;;1.10;0.50;;;23.50;99.90;;;;;;5093067;28;20468;-46
2022/06/25 10:25:11;;;;;;;2.13;0.70;;;23.50;99.90;;;;;;5093128;28;20479;-51
2022/06/25 10:27:42;;;;;;;2.80;0.60;;;23.30;99.90;;;;;;5093206;28;20530;-49
2022/06/25 10:30:10;;;;;;;2.67;0.60;;;23.30;99.90;;;;;;5092946;28;20475;-48
2022/06/25 10:32:47;;;;;;;1.20;0.60;;;23.40;99.90;;;;;;5092949;28;20467;-48
2022/06/25 10:35:29;;;;;;;3.00;0.50;;;23.50;99.90;;;;;;5092849;28;20496;-47
2022/06/25 10:38:06;;;;;;;1.10;0.40;;;23.60;99.90;;;;;;5092839;28;20505;-46
2022/06/25 10:40:34;;;;;;;1.37;0.60;;;23.60;99.90;;;;;;5092734;28;20478;-47
2022/06/25 10:43:23;;;;;;;1.20;0.60;;;23.70;99.90;;;;;;5092272;28;20830;-48
2022/06/25 10:45:51;;;;;;;1.53;0.50;;;23.50;99.90;;;;;;5092024;28;20506;-47
2022/06/25 10:48:23;;;;;;;1.10;0.70;;;23.40;99.90;;;;;;5092084;28;20874;-49
2022/06/25 10:50:51;;;;;;;1.87;0.60;;;23.40;99.90;;;;;;5092304;28;20543;-48
2022/06/25 10:53:20;;;;;;;1.13;0.60;;;23.50;99.90;;;;;;5092395;28;20487;-48
2022/06/25 10:56:23;;;;;;;1.20;0.57;;;23.50;99.90;;;;;;5092414;28;20479;-47
2022/06/25 10:58:51;;;;;;;2.13;0.47;;;23.50;99.90;;;;;;5092145;28;20443;-51
2022/06/25 11:01:21;;;;;;;1.00;0.43;;;23.50;99.90;;;;;;5092351;28;20943;-50
2022/06/25 11:03:53;;;;;;;1.00;0.60;;;23.50;99.90;;;;;;5091790;28;20503;-47
2022/06/25 11:06:22;;;;;;;1.17;0.40;;;23.50;99.90;;;;;;5092234;28;20446;-47
2022/06/25 11:08:50;;;;;;;1.93;0.60;;;23.60;99.90;;;;;;5092054;28;20444;-50
2022/06/25 11:11:25;;;;;;;1.20;0.60;;;23.60;99.90;;;;;;5092147;28;20443;-50
2022/06/25 11:13:52;;;;;;;2.50;0.70;;;23.60;99.90;;;;;;5091818;28;20486;-47
2022/06/25 11:16:20;;;;;;;1.00;0.40;;;23.50;99.90;;;;;;5092084;28;20526;-50
2022/06/25 11:18:50;;;;;;;1.00;0.40;;;23.50;99.90;;;;;;5091701;28;20467;-46
2022/06/25 11:21:31;;;;;;;1.20;0.40;;;23.50;99.90;;;;;;5091782;28;20440;-47
2022/06/25 11:24:19;;;;;;;3.57;0.40;;;23.60;99.90;;;;;;5091809;28;20444;-47
2022/06/25 11:29:36;;;;;;;1.20;0.37;;;23.70;99.90;;;;;;5091486;28;20469;-52
2022/06/25 11:32:03;;;;;;;1.23;0.43;;;23.70;99.90;;;;;;5091755;28;20503;-47
2022/06/25 11:34:32;;;;;;;1.10;0.50;;;23.70;99.90;;;;;;5091480;28;20467;-46
2022/06/25 11:37:06;;;;;;;1.00;0.53;;;23.70;99.90;;;;;;5091845;28;20969;-47
2022/06/25 11:39:34;;;;;;;1.00;0.40;;;23.70;99.90;;;;;;5091297;28;20443;-51
2022/06/25 11:42:02;;;;;;;2.70;0.60;;;23.70;99.90;;;;;;5092013;28;20491;-47
2022/06/25 11:44:38;;;;;;;1.17;0.60;;;23.80;99.90;;;;;;5091465;28;20939;-47
2022/06/25 11:47:06;;;;;;;1.03;0.40;;;23.70;99.90;;;;;;5091548;28;20712;-51
2022/06/25 11:49:38;;;;;;;2.10;0.50;;;23.70;99.90;;;;;;5091225;28;20450;-47
2022/06/25 11:52:05;;;;;;;1.10;0.40;;;23.80;99.90;;;;;;5091262;28;20546;-46
2022/06/25 11:54:36;;;;;;;1.17;0.40;;;23.80;99.90;;;;;;5091777;28;20860;-47
2022/06/25 11:57:04;;;;;;;0.90;0.40;;;23.90;98.20;;;;;;5091502;28;20436;-47
2022/06/25 11:59:33;;;;;;;1.00;0.40;;;23.80;98.90;;;;;;5091007;28;20467;-47
2022/06/25 12:02:03;;;;;;;1.00;0.30;;;23.70;99.90;;;;;;5091261;28;21018;-51
2022/06/25 12:04:30;;;;;;;1.20;0.60;;;23.60;99.30;;;;;;5091222;28;20556;-46
2022/06/25 12:06:59;;;;;;;1.20;0.40;;;23.60;99.90;;;;;;5091179;28;20482;-47
2022/06/25 12:09:26;;;;;;;1.10;0.50;;;23.60;99.90;;;;;;5091291;28;20870;-49
2022/06/25 12:11:55;;;;;;;1.27;0.60;;;23.70;99.90;;;;;;5091125;28;20875;-46
2022/06/25 12:14:23;;;;;;;1.00;0.40;;;23.80;99.90;;;;;;5091223;28;20526;-51
2022/06/25 12:16:50;;;;;;;1.00;0.40;;;23.90;99.90;;;;;;5090990;28;20952;-47
2022/06/25 12:19:18;;;;;;;1.23;0.57;;;23.80;99.90;;;;;;5091088;28;20439;-49
2022/06/25 12:21:45;;;;;;;1.17;0.30;;;23.80;99.90;;;;;;5090811;28;20482;-48
2022/06/25 12:24:15;;;;;;;1.13;0.50;;;23.70;99.90;;;;;;5091061;28;20440;-50
2022/06/25 12:26:43;;;;;;;1.00;0.40;;;23.90;99.90;;;;;;5091180;28;20504;-51
2022/06/25 12:29:13;;;;;;;1.07;0.50;;;23.90;98.90;;;;;;5090801;28;20818;-47
2022/06/25 12:31:41;;;;;;;1.10;0.40;;;23.90;99.90;;;;;;5090848;28;20439;-48
2022/06/25 12:34:09;;;;;;;0.90;0.40;;;23.80;97.50;;;;;;5090757;28;20466;-52
2022/06/25 12:36:38;;;;;;;1.20;0.50;;;23.70;99.90;;;;;;5090897;28;21085;-47
2022/06/25 12:39:43;;;;;;;1.00;0.50;;;23.80;99.90;;;;;;5090924;28;20780;-47
2022/06/25 12:42:14;;;;;;;1.47;0.80;;;23.70;99.10;;;;;;5091142;28;20538;-47
2022/06/25 12:44:42;;;;;;;3.43;0.53;;;23.70;99.90;;;;;;5090802;28;20991;-47
2022/06/25 12:47:11;;;;;;;1.13;0.40;;;23.80;98.30;;;;;;5091164;28;20768;-47
2022/06/25 12:49:47;;;;;;;1.00;0.50;;;23.70;98.30;;;;;;5090625;28;20467;-47
2022/06/25 12:52:16;;;;;;;1.00;0.50;;;23.80;97.30;;;;;;5090839;28;20959;-46
2022/06/25 12:54:45;;;;;;;1.73;0.40;;;23.90;99.00;;;;;;5090777;28;20454;-47
2022/06/25 12:57:21;;;;;;;1.20;0.40;;;23.90;97.60;;;;;;5091074;28;20492;-47
2022/06/25 12:59:49;;;;;;;2.30;0.60;;;24.00;98.90;;;;;;5090625;28;20446;-50
2022/06/25 13:02:16;;;;;;;1.10;0.40;;;24.00;99.40;;;;;;5091146;28;20532;-47
2022/06/25 13:04:43;;;;;;;2.50;0.47;;;24.00;98.90;;;;;;5090636;28;20564;-48
2022/06/25 13:07:11;;;;;;;1.30;0.70;;;24.10;99.30;;;;;;5090914;28;20526;-48
2022/06/25 13:09:38;;;;;;;1.17;0.60;;;24.10;98.30;;;;;;5090665;28;20542;-53
2022/06/25 13:12:06;;;;;;;1.10;0.50;;;24.00;98.50;;;;;;5094217;28;20487;-47
2022/06/25 13:14:35;;;;;;;2.23;0.60;;;24.10;98.00;;;;;;5094206;28;20450;-47
2022/06/25 13:17:03;;;;;;;1.20;0.50;;;24.00;97.70;;;;;;5094403;28;20885;-46